sensor_id;sensor_type;location;lat;lon;timestamp;P1;durP1;ratioP1;P2;durP2;ratioP2
78197;SDS011;67472;51.554;7.812;2024-02-15T00:02:00;6.82;;;6.07;;
78197;SDS011;67472;51.554;7.812;2024-02-15T00:04:46;6.70;;;6.07;;
78197;SDS011;67472;51.554;7.812;2024-02-15T00:07:33;7.22;;;6.53;;
78197;SDS011;67472;51.554;7.812;2024-02-15T00:10:21;7.05;;;6.00;;
78197;SDS011;67472;51.554;7.812;2024-02-15T00:13:10;7.78;;;6.20;;
78197;SDS011;67472;51.554;7.812;2024-02-15T00:15:56;6.10;;;5.50;;
78197;SDS011;67472;51.554;7.812;2024-02-15T00:18:44;8.07;;;6.10;;
78197;SDS011;67472;51.554;7.812;2024-02-15T00:21:34;7.40;;;5.53;;
78197;SDS011;67472;51.554;7.812;2024-02-15T00:24:22;9.48;;;5.53;;
78197;SDS011;67472;51.554;7.812;2024-02-15T00:27:08;6.55;;;5.95;;
78197;SDS011;67472;51.554;7.812;2024-02-15T00:29:58;6.85;;;5.07;;
78197;SDS011;67472;51.554;7.812;2024-02-15T00:32:44;5.63;;;5.13;;
78197;SDS011;67472;51.554;7.812;2024-02-15T00:35:35;6.70;;;5.00;;
78197;SDS011;67472;51.554;7.812;2024-02-15T00:38:23;6.45;;;5.82;;
78197;SDS011;67472;51.554;7.812;2024-02-15T00:41:11;6.25;;;5.65;;
78197;SDS011;67472;51.554;7.812;2024-02-15T00:43:58;6.60;;;5.90;;
78197;SDS011;67472;51.554;7.812;2024-02-15T00:46:46;5.13;;;4.68;;
78197;SDS011;67472;51.554;7.812;2024-02-15T00:49:32;5.35;;;4.90;;
78197;SDS011;67472;51.554;7.812;2024-02-15T00:52:21;6.30;;;4.88;;
78197;SDS011;67472;51.554;7.812;2024-02-15T00:55:09;6.03;;;5.47;;
78197;SDS011;67472;51.554;7.812;2024-02-15T00:57:56;6.70;;;5.43;;
78197;SDS011;67472;51.554;7.812;2024-02-15T01:00:42;5.40;;;4.90;;
78197;SDS011;67472;51.554;7.812;2024-02-15T01:03:30;10.63;;;6.03;;
78197;SDS011;67472;51.554;7.812;2024-02-15T01:06:20;7.93;;;6.15;;
78197;SDS011;67472;51.554;7.812;2024-02-15T01:09:06;6.03;;;5.15;;
78197;SDS011;67472;51.554;7.812;2024-02-15T01:11:53;8.55;;;5.88;;
78197;SDS011;67472;51.554;7.812;2024-02-15T01:14:40;6.85;;;5.65;;
78197;SDS011;67472;51.554;7.812;2024-02-15T01:17:28;6.53;;;5.93;;
78197;SDS011;67472;51.554;7.812;2024-02-15T01:20:16;7.97;;;6.38;;
78197;SDS011;67472;51.554;7.812;2024-02-15T01:23:03;6.38;;;5.70;;
78197;SDS011;67472;51.554;7.812;2024-02-15T01:25:55;6.28;;;5.68;;
78197;SDS011;67472;51.554;7.812;2024-02-15T01:28:42;6.70;;;5.80;;
78197;SDS011;67472;51.554;7.812;2024-02-15T01:31:28;7.53;;;5.57;;
78197;SDS011;67472;51.554;7.812;2024-02-15T01:34:16;8.90;;;6.45;;
78197;SDS011;67472;51.554;7.812;2024-02-15T01:37:07;8.05;;;5.80;;
78197;SDS011;67472;51.554;7.812;2024-02-15T01:39:54;7.10;;;6.30;;
78197;SDS011;67472;51.554;7.812;2024-02-15T01:42:40;6.43;;;5.82;;
78197;SDS011;67472;51.554;7.812;2024-02-15T01:45:29;6.68;;;5.88;;
78197;SDS011;67472;51.554;7.812;2024-02-15T01:48:15;6.95;;;6.13;;
78197;SDS011;67472;51.554;7.812;2024-02-15T01:51:06;7.68;;;6.28;;
78197;SDS011;67472;51.554;7.812;2024-02-15T01:54:00;7.82;;;6.57;;
78197;SDS011;67472;51.554;7.812;2024-02-15T01:56:46;8.82;;;7.25;;
78197;SDS011;67472;51.554;7.812;2024-02-15T01:59:33;10.98;;;7.65;;
78197;SDS011;67472;51.554;7.812;2024-02-15T02:02:20;8.63;;;6.80;;
78197;SDS011;67472;51.554;7.812;2024-02-15T02:05:10;8.48;;;7.13;;
78197;SDS011;67472;51.554;7.812;2024-02-15T02:07:59;9.27;;;6.95;;
78197;SDS011;67472;51.554;7.812;2024-02-15T02:10:50;12.13;;;7.07;;
78197;SDS011;67472;51.554;7.812;2024-02-15T02:13:37;10.20;;;7.35;;
78197;SDS011;67472;51.554;7.812;2024-02-15T02:16:24;11.05;;;7.72;;
78197;SDS011;67472;51.554;7.812;2024-02-15T02:19:12;9.32;;;6.85;;
78197;SDS011;67472;51.554;7.812;2024-02-15T02:21:58;9.07;;;6.60;;
78197;SDS011;67472;51.554;7.812;2024-02-15T02:24:58;9.40;;;6.75;;
78197;SDS011;67472;51.554;7.812;2024-02-15T02:27:48;8.15;;;6.38;;
78197;SDS011;67472;51.554;7.812;2024-02-15T02:30:35;7.85;;;6.65;;
78197;SDS011;67472;51.554;7.812;2024-02-15T02:33:25;8.65;;;7.03;;
78197;SDS011;67472;51.554;7.812;2024-02-15T02:36:14;11.70;;;6.93;;
78197;SDS011;67472;51.554;7.812;2024-02-15T02:39:02;8.13;;;6.35;;
78197;SDS011;67472;51.554;7.812;2024-02-15T02:41:50;15.30;;;7.90;;
78197;SDS011;67472;51.554;7.812;2024-02-15T02:44:36;14.18;;;7.72;;
78197;SDS011;67472;51.554;7.812;2024-02-15T02:47:25;11.07;;;8.45;;
78197;SDS011;67472;51.554;7.812;2024-02-15T02:50:14;8.23;;;6.60;;
78197;SDS011;67472;51.554;7.812;2024-02-15T02:53:05;10.00;;;7.15;;
78197;SDS011;67472;51.554;7.812;2024-02-15T02:55:55;8.50;;;6.25;;
78197;SDS011;67472;51.554;7.812;2024-02-15T02:58:44;12.95;;;6.28;;
78197;SDS011;67472;51.554;7.812;2024-02-15T03:01:30;9.30;;;6.47;;
78197;SDS011;67472;51.554;7.812;2024-02-15T03:04:18;11.13;;;6.28;;
78197;SDS011;67472;51.554;7.812;2024-02-15T03:07:05;13.13;;;6.55;;
78197;SDS011;67472;51.554;7.812;2024-02-15T03:09:52;11.48;;;6.40;;
78197;SDS011;67472;51.554;7.812;2024-02-15T03:12:39;9.60;;;6.32;;
78197;SDS011;67472;51.554;7.812;2024-02-15T03:15:27;11.85;;;6.88;;
78197;SDS011;67472;51.554;7.812;2024-02-15T03:18:14;13.30;;;9.07;;
78197;SDS011;67472;51.554;7.812;2024-02-15T03:21:00;13.40;;;7.85;;
78197;SDS011;67472;51.554;7.812;2024-02-15T03:23:48;13.05;;;8.00;;
78197;SDS011;67472;51.554;7.812;2024-02-15T03:26:35;15.13;;;7.90;;
78197;SDS011;67472;51.554;7.812;2024-02-15T03:29:22;11.23;;;6.72;;
78197;SDS011;67472;51.554;7.812;2024-02-15T03:32:11;12.02;;;8.82;;
78197;SDS011;67472;51.554;7.812;2024-02-15T03:34:58;9.85;;;7.72;;
78197;SDS011;67472;51.554;7.812;2024-02-15T03:37:45;10.80;;;7.13;;
78197;SDS011;67472;51.554;7.812;2024-02-15T03:40:36;11.52;;;7.38;;
78197;SDS011;67472;51.554;7.812;2024-02-15T03:43:25;9.60;;;7.65;;
78197;SDS011;67472;51.554;7.812;2024-02-15T03:46:11;10.20;;;6.30;;
78197;SDS011;67472;51.554;7.812;2024-02-15T03:49:00;11.68;;;6.82;;
78197;SDS011;67472;51.554;7.812;2024-02-15T03:51:47;7.93;;;6.55;;
78197;SDS011;67472;51.554;7.812;2024-02-15T03:54:34;12.13;;;7.65;;
78197;SDS011;67472;51.554;7.812;2024-02-15T03:57:24;14.63;;;7.43;;
78197;SDS011;67472;51.554;7.812;2024-02-15T04:00:11;11.52;;;7.35;;
78197;SDS011;67472;51.554;7.812;2024-02-15T04:03:00;11.18;;;7.07;;
78197;SDS011;67472;51.554;7.812;2024-02-15T04:05:53;14.00;;;7.20;;
78197;SDS011;67472;51.554;7.812;2024-02-15T04:08:40;11.13;;;7.70;;
78197;SDS011;67472;51.554;7.812;2024-02-15T04:11:29;11.65;;;8.27;;
78197;SDS011;67472;51.554;7.812;2024-02-15T04:14:18;10.43;;;7.32;;
78197;SDS011;67472;51.554;7.812;2024-02-15T04:17:05;11.02;;;7.22;;
78197;SDS011;67472;51.554;7.812;2024-02-15T04:19:52;14.50;;;9.40;;
78197;SDS011;67472;51.554;7.812;2024-02-15T04:22:42;11.70;;;8.88;;
78197;SDS011;67472;51.554;7.812;2024-02-15T04:25:29;15.68;;;8.60;;
78197;SDS011;67472;51.554;7.812;2024-02-15T04:28:20;12.00;;;8.45;;
78197;SDS011;67472;51.554;7.812;2024-02-15T04:31:12;13.85;;;8.90;;
78197;SDS011;67472;51.554;7.812;2024-02-15T04:33:59;13.80;;;8.27;;
78197;SDS011;67472;51.554;7.812;2024-02-15T04:36:46;12.85;;;8.30;;
78197;SDS011;67472;51.554;7.812;2024-02-15T04:39:37;12.10;;;8.30;;
78197;SDS011;67472;51.554;7.812;2024-02-15T04:42:24;13.38;;;8.27;;
78197;SDS011;67472;51.554;7.812;2024-02-15T04:45:11;15.82;;;9.07;;
78197;SDS011;67472;51.554;7.812;2024-02-15T04:48:13;13.20;;;8.68;;
78197;SDS011;67472;51.554;7.812;2024-02-15T04:50:59;13.80;;;8.13;;
78197;SDS011;67472;51.554;7.812;2024-02-15T04:53:46;14.23;;;8.50;;
78197;SDS011;67472;51.554;7.812;2024-02-15T04:56:35;12.30;;;7.60;;
78197;SDS011;67472;51.554;7.812;2024-02-15T04:59:23;12.55;;;7.15;;
78197;SDS011;67472;51.554;7.812;2024-02-15T05:02:10;9.20;;;6.90;;
78197;SDS011;67472;51.554;7.812;2024-02-15T05:04:56;11.63;;;7.35;;
78197;SDS011;67472;51.554;7.812;2024-02-15T05:07:44;14.95;;;7.15;;
78197;SDS011;67472;51.554;7.812;2024-02-15T05:10:33;10.40;;;6.72;;
78197;SDS011;67472;51.554;7.812;2024-02-15T05:13:21;13.88;;;6.90;;
78197;SDS011;67472;51.554;7.812;2024-02-15T05:16:07;13.13;;;7.35;;
78197;SDS011;67472;51.554;7.812;2024-02-15T05:18:57;11.38;;;6.68;;
78197;SDS011;67472;51.554;7.812;2024-02-15T05:21:44;12.00;;;5.80;;
78197;SDS011;67472;51.554;7.812;2024-02-15T05:24:31;11.35;;;5.95;;
78197;SDS011;67472;51.554;7.812;2024-02-15T05:27:20;12.82;;;5.93;;
78197;SDS011;67472;51.554;7.812;2024-02-15T05:30:15;8.07;;;5.50;;
78197;SDS011;67472;51.554;7.812;2024-02-15T05:33:04;8.88;;;5.22;;
78197;SDS011;67472;51.554;7.812;2024-02-15T05:35:53;8.27;;;5.03;;
78197;SDS011;67472;51.554;7.812;2024-02-15T05:38:40;7.85;;;4.97;;
78197;SDS011;67472;51.554;7.812;2024-02-15T05:41:30;6.10;;;4.18;;
78197;SDS011;67472;51.554;7.812;2024-02-15T05:44:18;10.60;;;4.82;;
78197;SDS011;67472;51.554;7.812;2024-02-15T05:47:10;11.45;;;5.97;;
78197;SDS011;67472;51.554;7.812;2024-02-15T05:50:05;6.40;;;4.25;;
78197;SDS011;67472;51.554;7.812;2024-02-15T05:52:53;9.98;;;4.75;;
78197;SDS011;67472;51.554;7.812;2024-02-15T05:55:42;10.77;;;4.97;;
78197;SDS011;67472;51.554;7.812;2024-02-15T05:58:32;7.18;;;4.15;;
78197;SDS011;67472;51.554;7.812;2024-02-15T06:01:19;8.18;;;4.43;;
78197;SDS011;67472;51.554;7.812;2024-02-15T06:04:07;10.50;;;4.32;;
78197;SDS011;67472;51.554;7.812;2024-02-15T06:06:57;9.25;;;4.55;;
78197;SDS011;67472;51.554;7.812;2024-02-15T06:09:54;7.68;;;3.65;;
78197;SDS011;67472;51.554;7.812;2024-02-15T06:12:41;4.82;;;3.70;;
78197;SDS011;67472;51.554;7.812;2024-02-15T06:15:28;6.63;;;3.60;;
78197;SDS011;67472;51.554;7.812;2024-02-15T06:18:15;5.75;;;3.22;;
78197;SDS011;67472;51.554;7.812;2024-02-15T06:21:07;10.80;;;3.13;;
78197;SDS011;67472;51.554;7.812;2024-02-15T06:23:55;7.57;;;3.22;;
78197;SDS011;67472;51.554;7.812;2024-02-15T06:26:42;8.45;;;2.80;;
78197;SDS011;67472;51.554;7.812;2024-02-15T06:29:29;4.60;;;3.00;;
78197;SDS011;67472;51.554;7.812;2024-02-15T06:32:47;6.80;;;2.95;;
78197;SDS011;67472;51.554;7.812;2024-02-15T06:35:51;6.70;;;2.63;;
78197;SDS011;67472;51.554;7.812;2024-02-15T06:38:59;5.30;;;2.60;;
78197;SDS011;67472;51.554;7.812;2024-02-15T06:42:03;4.22;;;2.13;;
78197;SDS011;67472;51.554;7.812;2024-02-15T06:44:51;4.18;;;2.03;;
78197;SDS011;67472;51.554;7.812;2024-02-15T06:47:37;3.75;;;2.17;;
78197;SDS011;67472;51.554;7.812;2024-02-15T06:50:27;3.63;;;2.05;;
78197;SDS011;67472;51.554;7.812;2024-02-15T06:53:14;4.95;;;2.10;;
78197;SDS011;67472;51.554;7.812;2024-02-15T06:56:02;8.10;;;2.08;;
78197;SDS011;67472;51.554;7.812;2024-02-15T06:58:49;6.55;;;2.40;;
78197;SDS011;67472;51.554;7.812;2024-02-15T07:01:35;7.53;;;2.10;;
78197;SDS011;67472;51.554;7.812;2024-02-15T07:04:22;4.22;;;1.92;;
78197;SDS011;67472;51.554;7.812;2024-02-15T07:07:13;6.28;;;1.95;;
78197;SDS011;67472;51.554;7.812;2024-02-15T07:10:02;4.47;;;1.90;;
78197;SDS011;67472;51.554;7.812;2024-02-15T07:12:51;6.05;;;1.60;;
78197;SDS011;67472;51.554;7.812;2024-02-15T07:15:37;6.82;;;1.92;;
78197;SDS011;67472;51.554;7.812;2024-02-15T07:18:29;7.78;;;2.30;;
78197;SDS011;67472;51.554;7.812;2024-02-15T07:21:19;5.57;;;2.20;;
78197;SDS011;67472;51.554;7.812;2024-02-15T07:24:10;4.20;;;1.80;;
78197;SDS011;67472;51.554;7.812;2024-02-15T07:26:57;6.10;;;2.30;;
78197;SDS011;67472;51.554;7.812;2024-02-15T07:29:50;4.20;;;2.17;;
78197;SDS011;67472;51.554;7.812;2024-02-15T07:32:36;9.18;;;2.65;;
78197;SDS011;67472;51.554;7.812;2024-02-15T07:35:23;6.95;;;3.17;;
78197;SDS011;67472;51.554;7.812;2024-02-15T07:38:10;8.50;;;2.67;;
78197;SDS011;67472;51.554;7.812;2024-02-15T07:40:56;5.10;;;2.65;;
78197;SDS011;67472;51.554;7.812;2024-02-15T07:43:42;7.78;;;2.53;;
78197;SDS011;67472;51.554;7.812;2024-02-15T07:46:31;6.07;;;2.85;;
78197;SDS011;67472;51.554;7.812;2024-02-15T07:49:19;6.10;;;2.35;;
78197;SDS011;67472;51.554;7.812;2024-02-15T07:52:06;6.95;;;2.47;;
78197;SDS011;67472;51.554;7.812;2024-02-15T07:54:53;5.88;;;2.22;;
78197;SDS011;67472;51.554;7.812;2024-02-15T07:57:41;3.75;;;2.40;;
78197;SDS011;67472;51.554;7.812;2024-02-15T08:00:27;5.88;;;2.30;;
78197;SDS011;67472;51.554;7.812;2024-02-15T08:03:16;6.30;;;2.50;;
78197;SDS011;67472;51.554;7.812;2024-02-15T08:06:03;6.13;;;2.53;;
78197;SDS011;67472;51.554;7.812;2024-02-15T08:08:50;6.05;;;2.58;;
78197;SDS011;67472;51.554;7.812;2024-02-15T08:11:38;8.20;;;2.70;;
78197;SDS011;67472;51.554;7.812;2024-02-15T08:14:27;5.88;;;2.67;;
78197;SDS011;67472;51.554;7.812;2024-02-15T08:17:14;8.75;;;3.40;;
78197;SDS011;67472;51.554;7.812;2024-02-15T08:20:02;8.52;;;3.20;;
78197;SDS011;67472;51.554;7.812;2024-02-15T08:22:52;8.75;;;2.92;;
78197;SDS011;67472;51.554;7.812;2024-02-15T08:25:39;6.25;;;2.50;;
78197;SDS011;67472;51.554;7.812;2024-02-15T08:28:26;7.60;;;3.42;;
78197;SDS011;67472;51.554;7.812;2024-02-15T08:31:14;4.55;;;2.70;;
78197;SDS011;67472;51.554;7.812;2024-02-15T08:34:01;7.13;;;2.60;;
78197;SDS011;67472;51.554;7.812;2024-02-15T08:36:50;4.93;;;2.25;;
78197;SDS011;67472;51.554;7.812;2024-02-15T08:39:36;4.22;;;2.30;;
78197;SDS011;67472;51.554;7.812;2024-02-15T08:42:22;7.97;;;2.63;;
78197;SDS011;67472;51.554;7.812;2024-02-15T08:45:09;5.18;;;2.40;;
78197;SDS011;67472;51.554;7.812;2024-02-15T08:47:57;6.50;;;2.38;;
78197;SDS011;67472;51.554;7.812;2024-02-15T08:50:43;7.45;;;2.58;;
78197;SDS011;67472;51.554;7.812;2024-02-15T08:53:32;4.45;;;2.10;;
78197;SDS011;67472;51.554;7.812;2024-02-15T08:56:18;5.03;;;2.28;;
78197;SDS011;67472;51.554;7.812;2024-02-15T08:59:07;3.80;;;1.83;;
78197;SDS011;67472;51.554;7.812;2024-02-15T09:01:54;8.18;;;2.13;;
78197;SDS011;67472;51.554;7.812;2024-02-15T09:04:41;5.13;;;2.20;;
78197;SDS011;67472;51.554;7.812;2024-02-15T09:07:28;5.07;;;2.38;;
78197;SDS011;67472;51.554;7.812;2024-02-15T09:10:19;5.13;;;2.00;;
78197;SDS011;67472;51.554;7.812;2024-02-15T09:13:07;6.22;;;2.13;;
78197;SDS011;67472;51.554;7.812;2024-02-15T09:15:54;4.15;;;2.00;;
78197;SDS011;67472;51.554;7.812;2024-02-15T09:18:40;4.82;;;2.00;;
78197;SDS011;67472;51.554;7.812;2024-02-15T09:21:30;3.80;;;1.40;;
78197;SDS011;67472;51.554;7.812;2024-02-15T09:24:17;2.60;;;1.60;;
78197;SDS011;67472;51.554;7.812;2024-02-15T09:27:08;2.25;;;1.55;;
78197;SDS011;67472;51.554;7.812;2024-02-15T09:29:57;7.18;;;1.65;;
78197;SDS011;67472;51.554;7.812;2024-02-15T09:32:44;5.22;;;1.77;;
78197;SDS011;67472;51.554;7.812;2024-02-15T09:35:31;2.95;;;1.60;;
78197;SDS011;67472;51.554;7.812;2024-02-15T09:38:17;2.55;;;1.95;;
78197;SDS011;67472;51.554;7.812;2024-02-15T09:41:04;4.95;;;1.80;;
78197;SDS011;67472;51.554;7.812;2024-02-15T09:43:53;4.63;;;1.58;;
78197;SDS011;67472;51.554;7.812;2024-02-15T09:46:42;8.02;;;1.67;;
78197;SDS011;67472;51.554;7.812;2024-02-15T09:49:33;5.28;;;1.58;;
78197;SDS011;67472;51.554;7.812;2024-02-15T09:52:23;3.30;;;1.45;;
78197;SDS011;67472;51.554;7.812;2024-02-15T09:55:10;2.88;;;1.60;;
78197;SDS011;67472;51.554;7.812;2024-02-15T09:57:57;6.10;;;1.60;;
78197;SDS011;67472;51.554;7.812;2024-02-15T10:00:46;2.05;;;1.50;;
78197;SDS011;67472;51.554;7.812;2024-02-15T10:03:35;4.13;;;1.48;;
78197;SDS011;67472;51.554;7.812;2024-02-15T10:06:25;3.42;;;1.67;;
78197;SDS011;67472;51.554;7.812;2024-02-15T10:09:27;5.68;;;1.95;;
78197;SDS011;67472;51.554;7.812;2024-02-15T10:12:17;5.43;;;1.58;;
78197;SDS011;67472;51.554;7.812;2024-02-15T10:15:05;3.47;;;1.60;;
78197;SDS011;67472;51.554;7.812;2024-02-15T10:17:58;5.28;;;2.00;;
78197;SDS011;67472;51.554;7.812;2024-02-15T10:20:49;5.35;;;1.80;;
78197;SDS011;67472;51.554;7.812;2024-02-15T10:23:45;4.57;;;1.40;;
78197;SDS011;67472;51.554;7.812;2024-02-15T10:26:32;4.93;;;1.75;;
78197;SDS011;67472;51.554;7.812;2024-02-15T10:29:25;4.22;;;1.40;;
78197;SDS011;67472;51.554;7.812;2024-02-15T10:32:12;2.88;;;1.42;;
78197;SDS011;67472;51.554;7.812;2024-02-15T10:35:03;5.35;;;1.77;;
78197;SDS011;67472;51.554;7.812;2024-02-15T10:37:50;3.75;;;1.45;;
78197;SDS011;67472;51.554;7.812;2024-02-15T10:40:37;5.18;;;1.70;;
78197;SDS011;67472;51.554;7.812;2024-02-15T10:43:27;7.70;;;1.42;;
78197;SDS011;67472;51.554;7.812;2024-02-15T10:46:27;4.75;;;1.88;;
78197;SDS011;67472;51.554;7.812;2024-02-15T10:49:14;3.67;;;1.73;;
78197;SDS011;67472;51.554;7.812;2024-02-15T10:52:04;4.22;;;1.48;;
78197;SDS011;67472;51.554;7.812;2024-02-15T10:54:56;2.45;;;1.20;;
78197;SDS011;67472;51.554;7.812;2024-02-15T10:57:49;4.80;;;1.52;;
78197;SDS011;67472;51.554;7.812;2024-02-15T11:00:38;2.72;;;1.33;;
78197;SDS011;67472;51.554;7.812;2024-02-15T11:03:29;7.50;;;1.77;;
78197;SDS011;67472;51.554;7.812;2024-02-15T11:06:21;4.30;;;1.85;;
78197;SDS011;67472;51.554;7.812;2024-02-15T11:09:11;1.77;;;1.20;;
78197;SDS011;67472;51.554;7.812;2024-02-15T11:11:57;8.38;;;2.10;;
78197;SDS011;67472;51.554;7.812;2024-02-15T11:14:45;4.93;;;1.48;;
78197;SDS011;67472;51.554;7.812;2024-02-15T11:17:44;5.30;;;1.83;;
78197;SDS011;67472;51.554;7.812;2024-02-15T11:20:49;3.88;;;1.40;;
78197;SDS011;67472;51.554;7.812;2024-02-15T11:23:37;4.88;;;1.52;;
78197;SDS011;67472;51.554;7.812;2024-02-15T11:29:47;6.03;;;1.42;;
78197;SDS011;67472;51.554;7.812;2024-02-15T11:32:36;4.40;;;1.45;;
78197;SDS011;67472;51.554;7.812;2024-02-15T11:35:28;1.60;;;1.02;;
78197;SDS011;67472;51.554;7.812;2024-02-15T11:38:27;5.20;;;1.40;;
78197;SDS011;67472;51.554;7.812;2024-02-15T11:41:17;2.70;;;1.30;;
78197;SDS011;67472;51.554;7.812;2024-02-15T11:44:08;4.18;;;1.45;;
78197;SDS011;67472;51.554;7.812;2024-02-15T11:46:55;4.50;;;1.10;;
78197;SDS011;67472;51.554;7.812;2024-02-15T11:49:46;2.78;;;1.23;;
78197;SDS011;67472;51.554;7.812;2024-02-15T11:52:32;3.60;;;1.13;;
78197;SDS011;67472;51.554;7.812;2024-02-15T11:55:19;5.13;;;1.50;;
78197;SDS011;67472;51.554;7.812;2024-02-15T11:58:07;3.45;;;1.30;;
78197;SDS011;67472;51.554;7.812;2024-02-15T12:01:05;4.47;;;1.63;;
78197;SDS011;67472;51.554;7.812;2024-02-15T12:04:09;3.88;;;1.58;;
78197;SDS011;67472;51.554;7.812;2024-02-15T12:07:13;4.68;;;1.30;;
78197;SDS011;67472;51.554;7.812;2024-02-15T12:10:17;2.28;;;1.20;;
78197;SDS011;67472;51.554;7.812;2024-02-15T12:13:21;2.58;;;1.80;;
78197;SDS011;67472;51.554;7.812;2024-02-15T12:16:26;4.10;;;1.50;;
78197;SDS011;67472;51.554;7.812;2024-02-15T12:19:31;6.88;;;2.33;;
78197;SDS011;67472;51.554;7.812;2024-02-15T12:22:19;5.07;;;1.83;;
78197;SDS011;67472;51.554;7.812;2024-02-15T12:25:07;5.25;;;2.55;;
78197;SDS011;67472;51.554;7.812;2024-02-15T12:27:58;6.80;;;1.42;;
78197;SDS011;67472;51.554;7.812;2024-02-15T12:30:46;5.60;;;1.40;;
78197;SDS011;67472;51.554;7.812;2024-02-15T12:33:43;2.75;;;0.85;;
78197;SDS011;67472;51.554;7.812;2024-02-15T12:36:31;2.67;;;1.23;;
78197;SDS011;67472;51.554;7.812;2024-02-15T12:39:24;3.72;;;1.33;;
78197;SDS011;67472;51.554;7.812;2024-02-15T12:42:12;5.28;;;1.02;;
78197;SDS011;67472;51.554;7.812;2024-02-15T12:44:59;6.28;;;1.30;;
78197;SDS011;67472;51.554;7.812;2024-02-15T12:47:45;3.55;;;1.13;;
78197;SDS011;67472;51.554;7.812;2024-02-15T12:50:36;3.47;;;1.25;;
78197;SDS011;67472;51.554;7.812;2024-02-15T12:53:24;3.35;;;1.33;;
78197;SDS011;67472;51.554;7.812;2024-02-15T12:56:11;4.75;;;1.48;;
78197;SDS011;67472;51.554;7.812;2024-02-15T12:59:05;8.35;;;1.63;;
78197;SDS011;67472;51.554;7.812;2024-02-15T13:01:53;2.65;;;1.38;;
78197;SDS011;67472;51.554;7.812;2024-02-15T13:04:40;4.85;;;1.20;;
78197;SDS011;67472;51.554;7.812;2024-02-15T13:07:28;2.55;;;1.10;;
78197;SDS011;67472;51.554;7.812;2024-02-15T13:10:14;5.03;;;1.38;;
78197;SDS011;67472;51.554;7.812;2024-02-15T13:13:00;5.43;;;1.27;;
78197;SDS011;67472;51.554;7.812;2024-02-15T13:15:48;2.83;;;1.00;;
78197;SDS011;67472;51.554;7.812;2024-02-15T13:18:37;1.13;;;1.02;;
78197;SDS011;67472;51.554;7.812;2024-02-15T13:21:23;3.22;;;1.00;;
78197;SDS011;67472;51.554;7.812;2024-02-15T13:24:16;5.85;;;1.23;;
78197;SDS011;67472;51.554;7.812;2024-02-15T13:27:05;4.82;;;1.30;;
78197;SDS011;67472;51.554;7.812;2024-02-15T13:29:52;6.20;;;1.30;;
78197;SDS011;67472;51.554;7.812;2024-02-15T13:32:39;6.03;;;1.88;;
78197;SDS011;67472;51.554;7.812;2024-02-15T13:35:27;4.85;;;1.30;;
78197;SDS011;67472;51.554;7.812;2024-02-15T13:38:17;2.40;;;0.93;;
78197;SDS011;67472;51.554;7.812;2024-02-15T13:41:09;2.05;;;1.15;;
78197;SDS011;67472;51.554;7.812;2024-02-15T13:43:56;3.67;;;1.10;;
78197;SDS011;67472;51.554;7.812;2024-02-15T13:46:44;4.60;;;1.05;;
78197;SDS011;67472;51.554;7.812;2024-02-15T13:49:34;1.60;;;1.00;;
78197;SDS011;67472;51.554;7.812;2024-02-15T13:52:21;3.53;;;1.38;;
78197;SDS011;67472;51.554;7.812;2024-02-15T13:55:11;1.73;;;0.93;;
78197;SDS011;67472;51.554;7.812;2024-02-15T13:58:03;4.60;;;1.30;;
78197;SDS011;67472;51.554;7.812;2024-02-15T14:00:54;6.78;;;1.23;;
78197;SDS011;67472;51.554;7.812;2024-02-15T14:03:42;2.83;;;0.90;;
78197;SDS011;67472;51.554;7.812;2024-02-15T14:06:30;2.38;;;0.90;;
78197;SDS011;67472;51.554;7.812;2024-02-15T14:09:18;3.00;;;0.95;;
78197;SDS011;67472;51.554;7.812;2024-02-15T14:12:10;4.88;;;1.02;;
78197;SDS011;67472;51.554;7.812;2024-02-15T14:14:58;4.80;;;1.13;;
78197;SDS011;67472;51.554;7.812;2024-02-15T14:17:45;2.72;;;1.10;;
78197;SDS011;67472;51.554;7.812;2024-02-15T14:20:31;1.80;;;1.05;;
78197;SDS011;67472;51.554;7.812;2024-02-15T14:23:22;3.65;;;1.30;;
78197;SDS011;67472;51.554;7.812;2024-02-15T14:26:12;2.97;;;1.20;;
78197;SDS011;67472;51.554;7.812;2024-02-15T14:28:58;2.17;;;1.30;;
78197;SDS011;67472;51.554;7.812;2024-02-15T14:31:53;2.25;;;1.10;;
78197;SDS011;67472;51.554;7.812;2024-02-15T14:34:58;3.95;;;1.08;;
78197;SDS011;67472;51.554;7.812;2024-02-15T14:37:46;6.97;;;1.20;;
78197;SDS011;67472;51.554;7.812;2024-02-15T14:40:33;2.33;;;1.38;;
78197;SDS011;67472;51.554;7.812;2024-02-15T14:43:21;4.20;;;1.05;;
78197;SDS011;67472;51.554;7.812;2024-02-15T14:46:07;4.20;;;1.15;;
78197;SDS011;67472;51.554;7.812;2024-02-15T14:48:56;3.00;;;1.23;;
78197;SDS011;67472;51.554;7.812;2024-02-15T14:51:44;3.80;;;1.20;;
78197;SDS011;67472;51.554;7.812;2024-02-15T14:54:30;2.85;;;1.00;;
78197;SDS011;67472;51.554;7.812;2024-02-15T14:57:17;5.15;;;1.13;;
78197;SDS011;67472;51.554;7.812;2024-02-15T15:00:04;5.22;;;1.00;;
78197;SDS011;67472;51.554;7.812;2024-02-15T15:02:59;2.63;;;1.10;;
78197;SDS011;67472;51.554;7.812;2024-02-15T15:05:49;5.90;;;1.27;;
78197;SDS011;67472;51.554;7.812;2024-02-15T15:08:53;4.43;;;1.38;;
78197;SDS011;67472;51.554;7.812;2024-02-15T15:11:57;3.35;;;1.27;;
78197;SDS011;67472;51.554;7.812;2024-02-15T15:15:01;5.22;;;1.23;;
78197;SDS011;67472;51.554;7.812;2024-02-15T15:17:49;3.22;;;1.20;;
78197;SDS011;67472;51.554;7.812;2024-02-15T15:20:36;2.63;;;1.33;;
78197;SDS011;67472;51.554;7.812;2024-02-15T15:23:25;5.22;;;1.30;;
78197;SDS011;67472;51.554;7.812;2024-02-15T15:26:18;3.92;;;1.15;;
78197;SDS011;67472;51.554;7.812;2024-02-15T15:29:06;3.40;;;1.30;;
78197;SDS011;67472;51.554;7.812;2024-02-15T15:31:53;4.70;;;1.48;;
78197;SDS011;67472;51.554;7.812;2024-02-15T15:34:40;3.05;;;1.10;;
78197;SDS011;67472;51.554;7.812;2024-02-15T15:37:30;4.00;;;1.17;;
78197;SDS011;67472;51.554;7.812;2024-02-15T15:40:20;2.55;;;1.00;;
78197;SDS011;67472;51.554;7.812;2024-02-15T15:43:07;1.85;;;1.15;;
78197;SDS011;67472;51.554;7.812;2024-02-15T15:45:57;6.00;;;1.60;;
78197;SDS011;67472;51.554;7.812;2024-02-15T15:48:52;4.15;;;1.40;;
78197;SDS011;67472;51.554;7.812;2024-02-15T15:51:41;5.95;;;1.52;;
78197;SDS011;67472;51.554;7.812;2024-02-15T15:54:29;4.07;;;1.20;;
78197;SDS011;67472;51.554;7.812;2024-02-15T15:57:19;4.07;;;1.27;;
78197;SDS011;67472;51.554;7.812;2024-02-15T16:00:06;5.28;;;1.40;;
78197;SDS011;67472;51.554;7.812;2024-02-15T16:02:59;2.90;;;1.27;;
78197;SDS011;67472;51.554;7.812;2024-02-15T16:05:51;1.63;;;1.08;;
78197;SDS011;67472;51.554;7.812;2024-02-15T16:08:39;2.33;;;1.23;;
78197;SDS011;67472;51.554;7.812;2024-02-15T16:11:30;3.85;;;1.25;;
78197;SDS011;67472;51.554;7.812;2024-02-15T16:14:22;3.00;;;1.10;;
78197;SDS011;67472;51.554;7.812;2024-02-15T16:17:11;6.43;;;1.35;;
78197;SDS011;67472;51.554;7.812;2024-02-15T16:20:00;2.88;;;1.60;;
78197;SDS011;67472;51.554;7.812;2024-02-15T16:22:55;2.80;;;1.35;;
78197;SDS011;67472;51.554;7.812;2024-02-15T16:25:40;4.68;;;1.67;;
78197;SDS011;67472;51.554;7.812;2024-02-15T16:28:27;4.75;;;1.20;;
78197;SDS011;67472;51.554;7.812;2024-02-15T16:31:17;3.03;;;1.63;;
78197;SDS011;67472;51.554;7.812;2024-02-15T16:34:03;5.05;;;1.60;;
78197;SDS011;67472;51.554;7.812;2024-02-15T16:36:50;4.18;;;1.70;;
78197;SDS011;67472;51.554;7.812;2024-02-15T16:39:37;4.10;;;1.88;;
78197;SDS011;67472;51.554;7.812;2024-02-15T16:42:26;4.63;;;1.60;;
78197;SDS011;67472;51.554;7.812;2024-02-15T16:45:13;2.78;;;1.25;;
78197;SDS011;67472;51.554;7.812;2024-02-15T16:48:05;4.13;;;1.27;;
78197;SDS011;67472;51.554;7.812;2024-02-15T16:50:51;2.88;;;1.40;;
78197;SDS011;67472;51.554;7.812;2024-02-15T16:53:42;2.38;;;1.27;;
78197;SDS011;67472;51.554;7.812;2024-02-15T16:56:29;6.22;;;1.55;;
78197;SDS011;67472;51.554;7.812;2024-02-15T16:59:15;4.18;;;1.60;;
78197;SDS011;67472;51.554;7.812;2024-02-15T17:02:04;5.85;;;1.63;;